Pagina principale
METAR-TAF:

METAR-TAF

Aeroporti :

Aeroporto di Costantina-Mohamed Boudiaf

Costantina, Algeria

latitudine: 36-17N, longitudine: 006-37E, altezza: 694 m

Osservazione

Il bollettino è stato emesso 22 minuti fa, alle 03:00 UTC
Vento calmo
Temperature 3°C
Umidità 87%
Pressione 1030 hPa
Visibilità 10 km o più
nessuna nube inferiore a 1500 m e nessun cumulonembo

METAR: DABC 240300Z 00000KT CAVOK 03/01 Q1030

Ora: 04:22 (03:22 UTC)

Previsione

Il bollettino è stato emesso 4 ore e 22 minuti fa, alle 23:00 UTC
Previsione valida dal 24 alle 00 UTC al 24 alle 24 UTC
Vento 4 kt da sud/sud-ovest
Visibilità 10 km o più
nessuna nube inferiore a 1500 m e nessun cumulonembo
Evoluzione graduale
dal 24 alle 08 UTC al 24 alle 10 UTC
Vento 6 kt da ovest/nord-ovest

TAF: DABC 232300Z 2400/2424 20004KT CAVOK BECMG 2408/2410 30006KT

Osservazioni e previsioni meteorologiche di più di 4000 aeroporti (messaggi METAR e TAF).

Le stazioni disponibili sono rappresentate dai dischi gialli e rossi sulla carta.

Puntare il mouse per vedere il nome della stazione.

Clicca sopra per visualizzare le osservazioni e previsioni meteorologiche.

Per cambiare la mappa : fare clic sui pulsanti verdi con una croce nera per ingrandire, il pulsante verde con un trattino per diminuire, o sulla freccia verde per le mappe adiacenti.


METAR-TAF: